Time;durP1;ratioP1;P1;durP2;ratioP2;P2;SDS_P1;SDS_P2;PMS_P1;PMS_P2;Temp;Humidity;BMP_temperature;BMP_pressure;BME280_temperature;BME280_humidity;BME280_pressure;Samples;Min_cycle;Max_cycle;Signal;HPM_P1;HPM_P2
2022/02/18 05:38:25;;;;;;;4.87;2.47;;;;;;;3.01;97.16;98425.91;1755657;81;21148;-37
2022/02/18 05:40:53;;;;;;;4.35;2.40;;;;;;;3.09;97.24;98431.95;1676905;84;21528;-37
2022/02/18 05:43:19;;;;;;;4.65;2.80;;;;;;;3.17;97.25;98429.78;1694870;84;21148;-43
2022/02/18 05:45:46;;;;;;;3.27;2.35;;;;;;;3.25;97.38;98432.39;1694611;84;21025;-43
2022/02/18 05:48:12;;;;;;;3.35;2.40;;;;;;;3.35;97.23;98431.50;1686651;84;21057;-38
2022/02/18 05:50:39;;;;;;;4.45;2.90;;;;;;;3.42;96.98;98425.89;1668044;84;21099;-38
2022/02/18 05:53:06;;;;;;;4.65;2.80;;;;;;;3.49;96.83;98438.41;1700665;83;20966;-43
2022/02/18 05:55:33;;;;;;;4.90;2.60;;;;;;;3.52;96.73;98440.53;1702244;82;21069;-37
2022/02/18 05:57:59;;;;;;;5.62;2.85;;;;;;;3.54;96.57;98450.87;1700581;84;21548;-43
2022/02/18 06:00:26;;;;;;;3.27;2.52;;;;;;;3.53;96.50;98453.89;1706264;82;21053;-42
2022/02/18 06:02:53;;;;;;;3.42;2.40;;;;;;;3.50;96.54;98457.78;1699139;83;21492;-37
2022/02/18 06:05:20;;;;;;;2.40;2.20;;;;;;;3.49;96.59;98464.26;1692440;84;21064;-36
2022/02/18 06:07:47;;;;;;;3.85;2.25;;;;;;;3.47;96.66;98470.70;1698455;84;20957;-46
2022/02/18 06:10:14;;;;;;;4.45;2.58;;;;;;;3.49;96.72;98469.00;1696800;84;21047;-36
2022/02/18 06:12:41;;;;;;;3.77;2.30;;;;;;;3.51;96.93;98482.78;1702756;84;20982;-36
2022/02/18 06:15:08;;;;;;;3.65;2.50;;;;;;;3.54;97.16;98483.19;1696278;83;21025;-36
2022/02/18 06:17:39;;;;;;;5.95;2.92;;;;;;;3.58;97.27;98500.00;1687214;84;20995;-42
2022/02/18 06:20:08;;;;;;;4.20;2.80;;;;;;;3.63;97.24;98489.66;1699534;82;21472;-45
2022/02/18 06:22:36;;;;;;;4.12;2.47;;;;;;;3.68;97.12;98498.28;1662655;83;21541;-44
2022/02/18 06:25:20;;;;;;;4.53;2.85;;;;;;;3.71;97.13;98497.86;1688108;83;21097;-43
2022/02/18 06:42:39;;;;;;;4.75;3.20;;;;;;;3.99;96.33;98538.76;1689112;82;21635;-42
2022/02/18 06:46:18;;;;;;;6.75;2.77;;;;;;;4.06;96.71;98547.41;1690302;82;21925;-42
2022/02/18 06:50:17;;;;;;;3.45;2.83;;;;;;;4.08;96.10;98556.45;1692951;82;21569;-43
2022/02/18 06:56:40;;;;;;;3.87;3.00;;;;;;;4.05;95.75;98573.27;1701974;82;20992;-37
2022/02/18 06:59:06;;;;;;;3.77;2.50;;;;;;;4.02;95.65;98578.02;1682364;83;21053;-43
2022/02/18 07:01:33;;;;;;;5.80;3.30;;;;;;;4.01;95.95;98582.77;1692222;83;21014;-43
2022/02/18 07:04:01;;;;;;;4.85;3.22;;;;;;;4.00;95.65;98592.67;1696578;83;21026;-42
2022/02/18 07:06:29;;;;;;;5.65;3.30;;;;;;;4.03;95.99;98598.30;1683052;82;20990;-42
2022/02/18 07:08:55;;;;;;;3.37;2.47;;;;;;;4.04;95.57;98598.28;1693318;82;21140;-37
2022/02/18 07:15:13;;;;;;;6.33;2.58;;;;;;;4.14;95.17;98605.62;1698852;83;21085;-36
2022/02/18 07:18:04;;;;;;;3.52;2.12;;;;;;;4.23;95.46;98610.36;1695771;82;21334;-35
2022/02/18 07:25:00;;;;;;;2.25;1.70;;;;;;;4.45;92.61;98616.34;1703326;82;21026;-36
2022/02/18 07:28:27;;;;;;;5.33;1.82;;;;;;;4.61;90.71;98634.45;1696657;83;20985;-37
2022/02/18 07:35:53;;;;;;;1.80;1.50;;;;;;;4.68;86.74;98653.84;1683043;83;21040;-36
2022/02/18 07:39:03;;;;;;;2.30;1.35;;;;;;;4.73;84.66;98654.70;1687061;82;21189;-36
2022/02/18 07:42:12;;;;;;;2.40;1.65;;;;;;;4.81;83.96;98657.26;1696115;82;21410;-35
2022/02/18 07:49:01;;;;;;;1.55;1.27;;;;;;;4.89;83.49;98672.81;1685225;83;21378;-36
2022/02/18 07:51:29;;;;;;;1.37;1.27;;;;;;;4.85;84.04;98678.42;1690332;82;21114;-36
2022/02/18 07:53:56;;;;;;;1.52;1.20;;;;;;;4.83;83.40;98686.64;1693686;82;21029;-37
2022/02/18 07:56:35;;;;;;;1.25;1.15;;;;;;;4.83;83.95;98691.83;1694052;82;21342;-37
2022/02/18 08:02:36;;;;;;;1.10;1.00;;;;;;;4.91;82.10;98701.73;1698131;82;20979;-36
2022/02/18 08:09:33;;;;;;;2.90;1.30;;;;;;;4.95;82.17;98704.75;1693215;82;21029;-37
2022/02/18 08:12:48;;;;;;;2.22;1.20;;;;;;;5.04;82.59;98712.52;1697761;82;21364;-36
2022/02/18 08:16:46;;;;;;;4.03;2.30;;;;;;;5.14;80.79;98714.63;1694747;84;21343;-36
2022/02/18 08:20:48;;;;;;;1.07;0.80;;;;;;;5.22;78.95;98709.44;1695953;83;21037;-36
2022/02/18 08:23:57;;;;;;;1.25;0.95;;;;;;;5.27;78.03;98721.92;1628235;87;21110;-37
2022/02/18 08:27:01;;;;;;;0.88;0.70;;;;;;;5.29;77.96;98732.73;1695970;82;21462;-36
2022/02/18 08:29:58;;;;;;;1.00;0.80;;;;;;;5.29;77.44;98727.55;1690666;82;21026;-36
2022/02/18 08:32:48;;;;;;;0.80;0.68;;;;;;;5.29;77.66;98726.69;1703751;83;20991;-36
2022/02/18 08:35:46;;;;;;;1.55;0.80;;;;;;;5.33;76.51;98744.83;1697520;82;21640;-43
2022/02/18 08:38:12;;;;;;;1.20;0.98;;;;;;;5.42;77.17;98743.05;1691968;84;21026;-44
2022/02/18 08:40:45;;;;;;;1.22;0.85;;;;;;;5.49;77.07;98748.64;1687456;82;20974;-43
2022/02/18 08:43:12;;;;;;;;;;;;;;;5.54;76.25;98747.75;1690664;83;21081;-42
2022/02/18 08:45:39;;;;;;;1.20;1.00;;;;;;;5.57;75.11;98753.38;1685436;83;20150;-43
2022/02/18 08:48:05;;;;;;;0.72;0.72;;;;;;;5.58;76.42;98754.66;1683451;83;21656;-43
2022/02/18 08:50:33;;;;;;;1.40;1.10;;;;;;;5.61;75.76;98751.17;1678491;83;21037;-43
2022/02/18 08:52:59;;;;;;;1.62;1.20;;;;;;;5.64;75.48;98755.51;1685775;83;21527;-43
2022/02/18 08:55:26;;;;;;;1.17;0.78;;;;;;;5.71;75.67;98766.28;1680338;83;21459;-43
2022/02/18 08:57:53;;;;;;;1.82;1.20;;;;;;;5.75;73.38;98772.75;1686728;83;21557;-43
2022/02/18 09:00:20;;;;;;;1.47;1.22;;;;;;;5.74;73.54;98774.92;1687211;84;21576;-43
2022/02/18 09:02:47;;;;;;;1.70;1.30;;;;;;;5.72;73.74;98777.08;1689360;82;21419;-43
2022/02/18 09:05:14;;;;;;;1.00;0.80;;;;;;;5.69;74.38;98771.92;1684064;82;21682;-43
2022/02/18 09:07:46;;;;;;;1.25;0.90;;;;;;;5.67;73.08;98775.80;1687274;82;21021;-42
2022/02/18 09:10:31;;;;;;;2.77;1.10;;;;;;;5.64;74.08;98777.56;1669911;84;21050;-36
2022/02/18 09:13:11;;;;;;;1.45;0.93;;;;;;;5.62;74.53;98776.25;1658142;84;21097;-35
2022/02/18 09:15:57;;;;;;;2.75;1.05;;;;;;;5.61;75.37;98772.80;1687746;82;21045;-36
2022/02/18 09:18:32;;;;;;;1.02;0.93;;;;;;;5.69;76.23;98773.22;1685703;82;21055;-36
2022/02/18 09:21:17;;;;;;;1.47;1.30;;;;;;;5.76;75.08;98771.88;1686033;84;21017;-36
2022/02/18 09:23:50;;;;;;;1.87;1.10;;;;;;;5.78;73.25;98781.80;1667605;83;21026;-37
2022/02/18 09:26:26;;;;;;;1.05;0.90;;;;;;;5.81;72.06;98787.43;1690712;82;21552;-36
2022/02/18 09:28:55;;;;;;;1.82;1.22;;;;;;;5.94;72.17;98783.07;1684858;83;21029;-36
2022/02/18 09:31:35;;;;;;;2.60;0.80;;;;;;;6.02;69.10;98796.42;1687788;83;21434;-36
2022/02/18 09:34:25;;;;;;;1.20;0.80;;;;;;;5.98;68.91;98795.17;1683725;82;21469;-37
2022/02/18 09:37:16;;;;;;;1.15;0.82;;;;;;;5.90;69.38;98804.68;1684236;83;21647;-36
2022/02/18 09:40:01;;;;;;;1.40;1.00;;;;;;;5.77;68.15;98798.25;1680446;83;21113;-37
2022/02/18 09:42:40;;;;;;;1.50;0.90;;;;;;;5.74;69.02;98800.88;1688769;83;21431;-37
2022/02/18 09:45:37;;;;;;;1.42;1.05;;;;;;;5.85;69.21;98796.91;1683172;83;21021;-37
2022/02/18 09:48:23;;;;;;;1.82;1.10;;;;;;;6.00;68.71;98797.31;1684684;83;21193;-37
2022/02/18 09:51:00;;;;;;;1.95;0.80;;;;;;;6.13;69.54;98808.91;1681405;83;21093;-43
2022/02/18 09:53:28;;;;;;;1.62;1.00;;;;;;;6.27;69.03;98806.69;1669352;84;21065;-43
2022/02/18 09:55:56;;;;;;;2.52;0.98;;;;;;;6.34;69.21;98810.52;1697892;83;21367;-37
2022/02/18 09:58:43;;;;;;;1.42;0.95;;;;;;;6.38;69.45;98813.53;1690260;83;21127;-44
2022/02/18 10:01:22;;;;;;;1.70;0.80;;;;;;;6.41;69.46;98812.64;1672489;83;21521;-43
2022/02/18 10:03:49;;;;;;;1.98;1.20;;;;;;;6.38;68.56;98809.64;1676500;83;21600;-43
2022/02/18 10:06:34;;;;;;;1.75;1.12;;;;;;;6.31;67.48;98821.36;1688085;82;21430;-43
2022/02/18 10:12:39;;;;;;;1.72;1.20;;;;;;;6.10;68.39;98829.72;1705973;83;21571;-43
2022/02/18 10:15:09;;;;;;;1.80;1.30;;;;;;;6.06;70.00;98828.00;1699568;82;21640;-43
2022/02/18 10:25:21;;;;;;;2.95;1.72;;;;;;;6.10;69.37;98856.13;1673458;82;21079;-36
2022/02/18 10:28:36;;;;;;;2.40;1.42;;;;;;;6.09;67.98;98840.98;1696817;82;21077;-37
2022/02/18 10:44:25;;;;;;;1.45;0.70;;;;;;;7.76;62.14;98838.70;1690717;82;21996;-36
2022/02/18 10:46:58;;;;;;;0.90;0.90;;;;;;;7.68;59.54;98848.77;1633410;85;21393;-43
2022/02/18 10:49:58;;;;;;;1.57;0.88;;;;;;;7.87;59.05;98851.16;1643040;86;21057;-42
2022/02/18 10:52:42;;;;;;;;;;;;;;;8.35;58.73;98847.07;1649122;85;21652;-42
2022/02/18 10:55:28;;;;;;;1.80;1.20;;;;;;;8.51;57.63;98849.88;1693479;83;20457;-36
2022/02/18 10:58:31;;;;;;;3.95;1.35;;;;;;;8.31;59.62;98858.85;1695485;84;21053;-43
2022/02/18 11:01:13;;;;;;;2.00;1.35;;;;;;;7.91;60.75;98865.42;1699694;82;21029;-44
2022/02/18 11:04:25;;;;;;;1.50;1.00;;;;;;;7.63;61.35;98870.08;1671568;84;21486;-37
2022/02/18 11:07:15;;;;;;;0.75;0.75;;;;;;;7.68;61.22;98872.64;1709273;83;20968;-37
2022/02/18 11:14:36;;;;;;;3.10;1.00;;;;;;;8.88;56.68;98879.78;1704451;82;21656;-37
2022/02/18 11:17:52;;;;;;;0.78;0.78;;;;;;;8.88;57.69;98878.03;1665820;83;21091;-44
2022/02/18 11:20:46;;;;;;;2.22;1.20;;;;;;;9.30;55.48;98882.98;1673845;82;22019;-37
2022/02/18 11:23:43;;;;;;;1.65;1.20;;;;;;;9.85;53.15;98885.88;1702313;82;21088;-37
2022/02/18 11:26:31;;;;;;;1.92;1.17;;;;;;;10.44;52.61;98889.97;1671040;83;21796;-38
2022/02/18 11:29:03;;;;;;;6.30;3.85;;;;;;;10.79;52.35;98887.42;1675372;83;21066;-37
2022/02/18 11:31:39;;;;;;;3.65;2.40;;;;;;;10.58;51.27;98900.52;1674264;83;21025;-42
2022/02/18 11:34:46;;;;;;;1.22;0.93;;;;;;;10.12;52.65;98899.30;1701229;82;21057;-37
2022/02/18 11:37:55;;;;;;;1.92;1.15;;;;;;;9.83;51.92;98902.48;1699823;83;21350;-37
2022/02/18 11:40:49;;;;;;;2.00;1.30;;;;;;;10.05;51.73;98915.55;1694013;84;22023;-36
2022/02/18 11:43:30;;;;;;;4.75;1.47;;;;;;;10.48;48.84;98904.67;1687007;82;21347;-37
2022/02/18 11:46:05;;;;;;;2.90;1.42;;;;;;;10.68;47.59;98916.89;1683420;83;21038;-44
2022/02/18 11:48:45;;;;;;;6.08;3.00;;;;;;;10.28;48.28;98930.80;1691587;83;21028;-44
2022/02/18 11:51:40;;;;;;;0.72;0.72;;;;;;;9.85;49.80;98918.97;1687532;82;21480;-36
2022/02/18 11:54:25;;;;;;;2.58;0.90;;;;;;;9.72;49.80;98913.57;1689537;82;21534;-35
2022/02/18 11:57:01;;;;;;;3.50;0.70;;;;;;;9.54;50.92;98917.38;1690910;82;21452;-36
2022/02/18 11:59:59;;;;;;;1.30;0.72;;;;;;;9.78;50.03;98923.91;1694707;82;21478;-35
2022/02/18 12:02:41;;;;;;;3.80;1.20;;;;;;;10.11;48.61;98933.72;1693001;83;21020;-43
2022/02/18 12:05:21;;;;;;;1.12;0.80;;;;;;;10.18;49.50;98933.59;1681771;83;21030;-37
2022/02/18 12:07:56;;;;;;;1.30;1.10;;;;;;;10.25;48.92;98934.77;1686411;82;21621;-37
2022/02/18 12:10:30;;;;;;;2.60;1.10;;;;;;;10.32;48.75;98929.86;1668744;84;21553;-37
2022/02/18 12:13:09;;;;;;;2.08;0.98;;;;;;;10.11;48.60;98940.70;1664435;82;20995;-36
2022/02/18 12:15:40;;;;;;;1.77;0.93;;;;;;;9.68;50.31;98953.68;1655404;84;20991;-42
2022/02/18 12:18:09;;;;;;;1.15;0.80;;;;;;;9.16;49.09;98959.76;1690294;82;21345;-42
2022/02/18 12:20:39;;;;;;;4.75;0.82;;;;;;;8.72;49.54;98962.59;1685597;83;21533;-43
2022/02/18 12:23:41;;;;;;;3.47;1.30;;;;;;;8.31;50.69;98966.55;1686863;82;20978;-42
2022/02/18 12:26:38;;;;;;;3.55;1.05;;;;;;;7.98;52.43;98972.55;1687682;83;21647;-43
2022/02/18 12:29:38;;;;;;;4.35;0.90;;;;;;;7.75;53.76;98979.73;1669777;83;21573;-43
2022/02/18 12:32:13;;;;;;;2.10;1.05;;;;;;;7.80;54.34;98976.64;1687337;84;21471;-43
2022/02/18 12:34:41;;;;;;;1.62;1.10;;;;;;;7.98;55.72;98981.66;1656718;84;21013;-42
2022/02/18 12:37:10;;;;;;;3.02;0.90;;;;;;;8.11;54.86;98991.52;1683518;83;21058;-43
2022/02/18 12:39:43;;;;;;;3.72;0.90;;;;;;;8.14;54.52;99001.05;1695853;82;21014;-42
2022/02/18 12:42:11;;;;;;;2.60;1.00;;;;;;;8.01;53.06;98988.60;1659645;83;21630;-42
2022/02/18 12:44:48;;;;;;;1.90;0.90;;;;;;;7.84;53.64;98991.81;1691377;82;21027;-42
2022/02/18 12:47:37;;;;;;;2.80;1.20;;;;;;;7.67;54.18;98990.22;1697947;82;21543;-43
2022/02/18 12:50:08;;;;;;;4.47;1.10;;;;;;;7.59;55.30;99002.42;1673212;83;21814;-43
2022/02/18 12:52:56;;;;;;;4.95;1.27;;;;;;;7.70;56.59;99007.55;1687374;82;21618;-43
2022/02/18 12:55:38;;;;;;;2.45;1.35;;;;;;;7.77;56.22;99005.74;1697561;82;20992;-43
2022/02/18 12:58:17;;;;;;;3.62;2.02;;;;;;;7.71;56.33;99006.25;1689337;84;21069;-44
2022/02/18 13:00:44;;;;;;;3.77;1.20;;;;;;;7.66;57.56;99013.67;1686010;83;21649;-44
2022/02/18 13:03:11;;;;;;;4.35;1.50;;;;;;;7.57;57.07;99015.91;1695168;83;21145;-43
2022/02/18 13:05:44;;;;;;;7.08;1.92;;;;;;;7.47;57.55;99024.65;1678817;84;21537;-43
2022/02/18 13:08:21;;;;;;;3.98;2.35;;;;;;;7.34;58.20;99038.19;1692416;83;21437;-44
2022/02/18 13:10:51;;;;;;;5.53;3.22;;;;;;;7.25;59.89;99039.98;1682869;83;21479;-37
2022/02/18 13:13:21;;;;;;;3.20;2.08;;;;;;;7.19;60.47;99046.12;1687992;83;21130;-37
2022/02/18 13:15:54;;;;;;;2.62;1.70;;;;;;;7.19;61.43;99045.68;1679789;83;21095;-37
2022/02/18 13:18:22;;;;;;;2.62;1.70;;;;;;;7.18;60.97;99048.27;1675786;83;21053;-37
2022/02/18 13:20:50;;;;;;;4.85;1.47;;;;;;;7.15;61.14;99055.66;1668997;85;21053;-37
2022/02/18 13:23:26;;;;;;;4.00;2.02;;;;;;;7.09;60.96;99057.44;1689172;83;21402;-38
2022/02/18 13:25:57;;;;;;;11.28;4.08;;;;;;;7.05;61.37;99071.33;1693513;84;21708;-38
2022/02/18 13:28:46;;;;;;;5.00;2.70;;;;;;;7.00;61.71;99066.58;1688310;83;21042;-37
2022/02/18 13:31:14;;;;;;;3.58;2.87;;;;;;;6.98;62.10;99070.94;1687717;84;21690;-44
2022/02/18 13:33:53;;;;;;;5.15;2.42;;;;;;;6.96;61.87;99083.06;1666135;84;21372;-44
2022/02/18 13:36:26;;;;;;;3.70;2.00;;;;;;;6.91;62.61;99084.41;1674587;84;21094;-44
2022/02/18 13:38:58;;;;;;;4.05;1.95;;;;;;;6.88;63.32;99087.86;1681428;83;21081;-44
2022/02/18 13:41:35;;;;;;;4.25;2.50;;;;;;;6.87;63.75;99090.48;1696053;84;21081;-44
2022/02/18 13:44:04;;;;;;;3.52;1.90;;;;;;;6.89;64.22;99090.89;1692649;82;21042;-43
2022/02/18 13:46:37;;;;;;;1.67;1.52;;;;;;;6.93;63.63;99104.31;1697611;84;21608;-44
2022/02/18 13:49:05;;;;;;;;;;;;;;;6.95;63.73;99113.41;1681253;84;21042;-44
2022/02/18 13:51:37;;;;;;;5.22;2.50;;;;;;;6.93;64.28;99116.45;1698512;84;20138;-44
2022/02/18 13:54:04;;;;;;;4.40;2.47;;;;;;;6.90;64.51;99116.48;1697608;84;21038;-44
2022/02/18 13:56:39;;;;;;;3.10;2.08;;;;;;;6.86;64.69;99123.42;1698019;84;21033;-44
2022/02/18 13:59:23;;;;;;;3.40;2.05;;;;;;;6.81;64.62;99131.67;1698572;84;21033;-44
2022/02/18 14:01:53;;;;;;;3.83;2.20;;;;;;;6.75;64.58;99131.69;1702650;83;20986;-44
2022/02/18 14:04:34;;;;;;;2.85;2.33;;;;;;;6.70;65.42;99146.43;1678835;82;21537;-44
2022/02/18 14:07:11;;;;;;;2.92;1.98;;;;;;;6.68;66.58;99142.12;1683287;84;21156;-37
2022/02/18 14:09:50;;;;;;;2.40;1.90;;;;;;;6.77;67.19;99143.38;1689681;83;21052;-44
2022/02/18 14:12:19;;;;;;;5.00;2.60;;;;;;;7.00;67.57;99144.16;1676824;84;21010;-37
2022/02/18 14:14:59;;;;;;;3.60;2.52;;;;;;;7.06;67.52;99148.47;1678524;84;21131;-37
2022/02/18 14:17:27;;;;;;;6.05;2.27;;;;;;;7.04;67.47;99160.19;1678604;83;21656;-44
2022/02/18 14:19:56;;;;;;;2.95;2.10;;;;;;;6.97;66.56;99163.69;1691913;83;21137;-38
2022/02/18 14:22:32;;;;;;;4.87;1.72;;;;;;;6.85;67.02;99167.20;1685744;84;20990;-37
2022/02/18 14:25:04;;;;;;;3.22;2.00;;;;;;;6.74;67.74;99175.45;1702904;83;21029;-44
2022/02/18 14:27:30;;;;;;;4.87;2.25;;;;;;;6.64;67.78;99184.14;1695954;84;21930;-44
2022/02/18 14:30:03;;;;;;;3.65;1.67;;;;;;;6.54;67.77;99188.47;1690776;83;21043;-43
2022/02/18 14:32:34;;;;;;;4.15;1.60;;;;;;;6.44;68.12;99190.67;1700597;84;21000;-43
2022/02/18 14:35:07;;;;;;;3.25;1.90;;;;;;;6.36;68.77;99191.09;1692168;84;21062;-44
2022/02/18 14:37:36;;;;;;;4.72;2.20;;;;;;;6.28;69.18;99198.90;1698749;83;20982;-44
2022/02/18 14:40:23;;;;;;;5.12;1.67;;;;;;;6.22;69.22;99202.80;1700446;83;21542;-36
2022/02/18 14:42:50;;;;;;;2.80;1.85;;;;;;;6.17;69.28;99205.82;1699462;84;21025;-36
2022/02/18 14:45:29;;;;;;;3.37;1.98;;;;;;;6.12;69.45;99215.34;1699034;84;21021;-43
2022/02/18 14:47:56;;;;;;;3.20;1.98;;;;;;;6.07;69.60;99222.25;1699167;83;21548;-43
2022/02/18 14:50:32;;;;;;;3.52;1.85;;;;;;;6.02;69.74;99235.22;1698666;84;21439;-43
2022/02/18 14:53:01;;;;;;;3.75;2.17;;;;;;;5.98;70.08;99237.41;1697232;83;21514;-37
2022/02/18 14:55:34;;;;;;;6.12;2.65;;;;;;;5.94;70.34;99237.39;1703184;84;21530;-43
